createdAt,value
2018-09-02T00:01:23.629Z,8.90
2018-09-02T00:03:51.945Z,8.90
2018-09-02T00:06:20.280Z,8.90
2018-09-02T00:08:48.581Z,8.90
2018-09-02T00:11:16.927Z,8.80
2018-09-02T00:13:45.344Z,8.70
2018-09-02T00:16:13.670Z,8.70
2018-09-02T00:18:42.004Z,8.70
2018-09-02T00:21:10.332Z,8.50
2018-09-02T00:23:38.628Z,8.60
2018-09-02T00:26:06.989Z,8.60
2018-09-02T00:28:35.296Z,8.50
2018-09-02T00:31:03.614Z,8.50
2018-09-02T00:33:31.953Z,8.60
2018-09-02T00:36:00.316Z,8.60
2018-09-02T00:38:28.620Z,8.50
2018-09-02T00:40:56.944Z,8.50
2018-09-02T00:43:25.260Z,8.50
2018-09-02T00:45:53.578Z,8.40
2018-09-02T00:48:21.932Z,8.40
2018-09-02T00:50:50.232Z,8.40
2018-09-02T00:53:18.584Z,8.50
2018-09-02T00:55:46.898Z,8.50
2018-09-02T00:58:15.216Z,8.40
2018-09-02T01:00:43.541Z,8.40
2018-09-02T01:03:11.864Z,8.40
2018-09-02T01:05:40.197Z,8.40
2018-09-02T01:08:08.525Z,8.30
2018-09-02T01:10:36.878Z,8.40
2018-09-02T01:13:05.378Z,8.30
2018-09-02T01:15:33.740Z,8.30
2018-09-02T01:18:02.033Z,8.20
2018-09-02T01:20:30.394Z,8.20
2018-09-02T01:22:58.732Z,8.30
2018-09-02T01:25:27.049Z,8.20
2018-09-02T01:27:55.371Z,8.20
2018-09-02T01:30:23.669Z,8.20
2018-09-02T01:32:52.016Z,8.10
2018-09-02T01:35:25.802Z,8.20
2018-09-02T01:37:54.127Z,8.10
2018-09-02T01:40:22.426Z,8.00
2018-09-02T01:42:51.040Z,8.00
2018-09-02T01:45:19.395Z,8.20
2018-09-02T01:47:47.846Z,8.10
2018-09-02T01:50:16.174Z,8.00
2018-09-02T01:52:44.517Z,7.90
2018-09-02T01:55:12.844Z,8.00
2018-09-02T01:57:41.173Z,8.00
2018-09-02T02:00:09.508Z,8.00
2018-09-02T02:02:37.833Z,8.00
2018-09-02T02:05:06.219Z,8.00
2018-09-02T02:07:34.545Z,8.10
2018-09-02T02:10:02.856Z,8.00
2018-09-02T02:12:31.197Z,8.00
2018-09-02T02:14:59.492Z,8.00
2018-09-02T02:17:27.872Z,7.90
2018-09-02T02:19:56.213Z,7.90
2018-09-02T02:22:24.589Z,7.80
2018-09-02T02:24:52.908Z,7.80
2018-09-02T02:27:21.267Z,7.80
2018-09-02T02:29:49.620Z,7.80
2018-09-02T02:32:17.952Z,7.70
2018-09-02T02:34:46.292Z,7.70
2018-09-02T02:37:14.777Z,7.70
2018-09-02T02:39:43.081Z,7.70
2018-09-02T02:42:11.422Z,7.70
2018-09-02T02:44:39.724Z,7.80
2018-09-02T02:47:08.065Z,7.80
2018-09-02T02:49:36.387Z,7.70
2018-09-02T02:52:04.746Z,7.80
2018-09-02T02:54:33.064Z,7.60
2018-09-02T02:57:01.401Z,7.60
2018-09-02T02:59:29.716Z,7.70
2018-09-02T03:01:58.159Z,7.60
2018-09-02T03:04:26.456Z,7.70
2018-09-02T03:06:54.797Z,7.60
2018-09-02T03:09:23.104Z,7.70
2018-09-02T03:11:51.470Z,7.70
2018-09-02T03:14:19.785Z,7.60
2018-09-02T03:16:48.134Z,7.60
2018-09-02T03:19:16.478Z,7.60
2018-09-02T03:21:44.872Z,7.60
2018-09-02T03:24:13.177Z,7.80
2018-09-02T03:26:41.482Z,7.90
2018-09-02T03:29:09.825Z,7.70
2018-09-02T03:31:38.169Z,7.60
2018-09-02T03:34:06.541Z,7.60
2018-09-02T03:36:34.885Z,7.60
2018-09-02T03:39:03.354Z,7.60
2018-09-02T03:41:31.662Z,7.60
2018-09-02T03:44:00.005Z,7.50
2018-09-02T03:46:28.317Z,7.50
2018-09-02T03:48:56.691Z,7.60
2018-09-02T03:51:24.997Z,7.70
2018-09-02T03:53:53.333Z,7.80
2018-09-02T03:56:21.648Z,7.80
2018-09-02T03:58:50.008Z,7.90
2018-09-02T04:01:18.363Z,7.90
2018-09-02T04:03:46.703Z,7.80
2018-09-02T04:06:15.025Z,7.80
2018-09-02T04:08:43.391Z,7.80
2018-09-02T04:11:11.732Z,7.80
2018-09-02T04:13:40.049Z,7.80
2018-09-02T04:16:08.373Z,7.80
2018-09-02T04:18:36.707Z,7.70
2018-09-02T04:21:05.313Z,7.60
2018-09-02T04:23:33.649Z,7.60
2018-09-02T04:26:01.976Z,7.60
2018-09-02T04:28:30.309Z,7.60
2018-09-02T04:30:58.622Z,7.50
2018-09-02T04:33:26.942Z,7.50
2018-09-02T04:35:55.284Z,7.60
2018-09-02T04:38:23.598Z,7.60
2018-09-02T04:40:51.897Z,7.60
2018-09-02T04:43:20.212Z,7.70
2018-09-02T04:45:48.510Z,7.60
2018-09-02T04:48:16.848Z,7.60
2018-09-02T04:50:45.149Z,7.70
2018-09-02T04:53:13.477Z,7.70
2018-09-02T04:55:41.781Z,7.60
2018-09-02T04:58:10.109Z,7.60
2018-09-02T05:00:38.414Z,7.60
2018-09-02T05:03:06.749Z,7.60
2018-09-02T05:05:35.065Z,7.70
2018-09-02T05:08:03.404Z,7.60
2018-09-02T05:10:31.760Z,7.50
2018-09-02T05:13:00.105Z,7.40
2018-09-02T05:15:28.417Z,7.40
2018-09-02T05:17:56.749Z,7.40
2018-09-02T05:20:25.093Z,7.50
2018-09-02T05:22:53.429Z,7.70
2018-09-02T05:25:21.781Z,7.70
2018-09-02T05:27:50.103Z,7.80
2018-09-02T05:30:18.448Z,7.80
2018-09-02T05:32:46.785Z,7.80
2018-09-02T05:35:15.120Z,7.90
2018-09-02T05:37:43.416Z,8.00
2018-09-02T05:40:11.728Z,8.00
2018-09-02T05:42:40.034Z,8.00
2018-09-02T05:45:08.412Z,8.00
2018-09-02T05:47:36.729Z,8.10
2018-09-02T05:50:05.106Z,8.20
2018-09-02T05:52:33.405Z,8.10
2018-09-02T05:55:01.801Z,8.30
2018-09-02T05:57:30.228Z,8.30
2018-09-02T05:59:58.547Z,8.30
2018-09-02T06:02:26.861Z,8.30
2018-09-02T06:04:55.194Z,8.40
2018-09-02T06:07:23.504Z,8.50
2018-09-02T06:09:51.834Z,8.70
2018-09-02T06:12:20.140Z,9.00
2018-09-02T06:14:48.454Z,9.10
2018-09-02T06:17:16.804Z,8.80
2018-09-02T06:19:45.173Z,8.80
2018-09-02T06:22:13.489Z,8.70
2018-09-02T06:24:41.825Z,8.60
2018-09-02T06:27:10.129Z,8.50
2018-09-02T06:29:38.449Z,8.50
2018-09-02T06:32:06.836Z,8.60
2018-09-02T06:34:35.185Z,8.90
2018-09-02T06:37:03.537Z,8.80
2018-09-02T06:39:31.942Z,8.70
2018-09-02T06:42:00.193Z,8.80
2018-09-02T06:44:28.537Z,8.80
2018-09-02T06:46:56.844Z,8.90
2018-09-02T06:49:25.186Z,8.90
2018-09-02T06:51:53.500Z,9.00
2018-09-02T06:54:22.203Z,9.00
2018-09-02T06:56:50.493Z,9.10
2018-09-02T06:59:18.897Z,9.20
2018-09-02T07:01:47.189Z,9.30
2018-09-02T07:04:15.525Z,9.50
2018-09-02T07:06:43.904Z,9.70
2018-09-02T07:09:12.188Z,9.90
2018-09-02T07:11:40.529Z,9.80
2018-09-02T07:14:08.847Z,9.80
2018-09-02T07:16:37.164Z,9.80
2018-09-02T07:19:05.502Z,10.10
2018-09-02T07:21:33.841Z,10.20
2018-09-02T07:24:02.165Z,10.40
2018-09-02T07:26:30.498Z,10.70
2018-09-02T07:28:58.817Z,10.70
2018-09-02T07:31:27.178Z,10.70
2018-09-02T07:33:55.504Z,10.90
2018-09-02T07:36:23.860Z,10.80
2018-09-02T07:38:52.184Z,11.00
2018-09-02T07:41:20.528Z,11.10
2018-09-02T07:43:48.890Z,11.10
2018-09-02T07:46:17.217Z,11.30
2018-09-02T07:48:45.546Z,11.20
2018-09-02T07:51:13.880Z,11.20
2018-09-02T07:53:42.201Z,11.20
2018-09-02T07:56:10.531Z,11.40
2018-09-02T07:58:38.853Z,11.40
2018-09-02T08:01:07.195Z,11.40
2018-09-02T08:03:35.504Z,11.50
2018-09-02T08:06:03.841Z,11.70
2018-09-02T08:08:32.164Z,11.80
2018-09-02T08:11:00.495Z,11.90
2018-09-02T08:13:28.849Z,12.00
2018-09-02T08:15:57.168Z,12.10
2018-09-02T08:18:25.504Z,12.20
2018-09-02T08:20:53.833Z,12.30
2018-09-02T08:23:22.160Z,12.50
2018-09-02T08:25:50.485Z,12.60
2018-09-02T08:28:18.813Z,12.70
2018-09-02T08:30:47.170Z,13.00
2018-09-02T08:33:15.497Z,13.10
2018-09-02T08:35:43.876Z,13.50
2018-09-02T08:38:12.173Z,13.70
2018-09-02T08:40:40.548Z,13.80
2018-09-02T08:43:08.853Z,14.00
2018-09-02T08:45:37.176Z,14.20
2018-09-02T08:48:05.507Z,14.20
2018-09-02T08:50:33.855Z,14.30
2018-09-02T08:53:02.136Z,14.40
2018-09-02T08:55:30.460Z,14.40
2018-09-02T08:57:58.789Z,14.60
2018-09-02T09:00:27.105Z,14.70
2018-09-02T09:02:55.461Z,14.90
2018-09-02T09:05:23.764Z,15.10
2018-09-02T09:07:52.206Z,15.10
2018-09-02T09:10:20.437Z,15.20
2018-09-02T09:12:48.758Z,15.20
2018-09-02T09:15:17.065Z,15.20
2018-09-02T09:17:45.403Z,15.30
2018-09-02T09:20:13.703Z,15.40
2018-09-02T09:22:42.132Z,15.30
2018-09-02T09:25:10.954Z,15.30
2018-09-02T09:27:39.780Z,15.40
2018-09-02T09:30:08.964Z,15.50
2018-09-02T09:32:37.285Z,15.60
2018-09-02T09:35:05.884Z,15.80
2018-09-02T09:37:34.238Z,16.10
2018-09-02T09:40:02.780Z,16.40
2018-09-02T09:42:31.116Z,16.50
2018-09-02T09:44:59.425Z,16.60
2018-09-02T09:47:27.774Z,16.80
2018-09-02T09:49:56.077Z,16.90
2018-09-02T09:52:24.424Z,16.80
2018-09-02T09:54:52.941Z,16.90
2018-09-02T09:57:21.264Z,17.20
2018-09-02T09:59:49.573Z,17.50
2018-09-02T10:02:17.901Z,17.90
2018-09-02T10:04:46.213Z,18.20
2018-09-02T10:07:14.554Z,18.30
2018-09-02T10:09:42.865Z,18.00
2018-09-02T10:12:11.218Z,18.10
2018-09-02T10:17:14.356Z,18.40
2018-09-02T10:19:42.620Z,18.30
2018-09-02T10:22:10.945Z,18.50
2018-09-02T10:24:39.258Z,18.50
2018-09-02T10:27:07.586Z,18.50
2018-09-02T10:29:35.919Z,18.50
2018-09-02T10:32:04.289Z,18.50
2018-09-02T10:34:32.617Z,18.50
2018-09-02T10:37:00.970Z,18.50
2018-09-02T10:39:29.260Z,18.40
2018-09-02T10:41:57.614Z,18.30
2018-09-02T10:44:25.920Z,18.20
2018-09-02T10:46:54.226Z,18.20
2018-09-02T10:49:22.580Z,18.10
2018-09-02T10:51:50.884Z,18.10
2018-09-02T10:54:19.221Z,18.10
2018-09-02T10:56:47.544Z,18.10
2018-09-02T10:59:15.859Z,17.90
2018-09-02T11:01:44.165Z,17.90
2018-09-02T11:04:12.588Z,17.90
2018-09-02T11:06:40.925Z,17.80
2018-09-02T11:09:10.867Z,17.70
2018-09-02T11:11:39.189Z,17.50
2018-09-02T11:14:08.234Z,17.70
2018-09-02T11:16:36.544Z,17.80
2018-09-02T11:19:05.130Z,17.60
2018-09-02T11:21:33.477Z,17.40
2018-09-02T11:24:01.797Z,17.20
2018-09-02T11:26:30.204Z,17.20
2018-09-02T11:28:58.528Z,17.10
2018-09-02T11:31:26.819Z,17.10
2018-09-02T11:33:55.189Z,17.10
2018-09-02T11:36:23.520Z,17.10
2018-09-02T11:38:51.862Z,17.00
2018-09-02T11:41:20.166Z,17.10
2018-09-02T11:43:48.504Z,17.10
2018-09-02T11:46:16.877Z,17.10
2018-09-02T11:48:45.205Z,17.10
2018-09-02T11:51:13.556Z,17.10
2018-09-02T11:53:41.877Z,17.10
2018-09-02T11:56:10.189Z,17.10
2018-09-02T11:58:38.520Z,17.10
2018-09-02T12:01:06.877Z,17.10
2018-09-02T12:03:35.253Z,17.10
2018-09-02T12:06:03.561Z,17.30
2018-09-02T12:08:31.913Z,17.30
2018-09-02T12:11:00.256Z,17.40
2018-09-02T12:13:28.613Z,17.30
2018-09-02T12:15:56.916Z,17.20
2018-09-02T12:18:25.321Z,17.30
2018-09-02T12:20:53.673Z,17.30
2018-09-02T12:23:22.005Z,17.30
2018-09-02T12:25:50.345Z,17.30
2018-09-02T12:28:18.711Z,17.40
2018-09-02T12:30:47.035Z,17.40
2018-09-02T12:33:15.365Z,17.50
2018-09-02T12:35:43.700Z,17.60
2018-09-02T12:38:12.021Z,17.50
2018-09-02T12:40:40.353Z,17.50
2018-09-02T12:43:08.681Z,17.50
2018-09-02T12:45:37.048Z,17.50
2018-09-02T12:48:05.487Z,17.40
2018-09-02T12:50:33.821Z,17.40
2018-09-02T12:53:02.191Z,17.40
2018-09-02T12:55:30.536Z,17.50
2018-09-02T12:57:58.854Z,17.50
2018-09-02T13:00:27.201Z,17.60
2018-09-02T13:02:55.536Z,17.70
2018-09-02T13:05:24.713Z,17.50
2018-09-02T13:07:53.020Z,17.50
2018-09-02T13:10:21.348Z,17.70
2018-09-02T13:12:49.682Z,17.80
2018-09-02T13:15:18.073Z,17.80
2018-09-02T13:17:46.373Z,17.80
2018-09-02T13:20:14.709Z,17.80
2018-09-02T13:22:43.016Z,17.90
2018-09-02T13:25:11.362Z,18.00
2018-09-02T13:27:39.777Z,18.10
2018-09-02T13:30:09.544Z,18.10
2018-09-02T13:32:38.109Z,18.30
2018-09-02T13:35:06.691Z,18.40
2018-09-02T13:37:35.026Z,18.40
2018-09-02T13:40:03.407Z,18.50
2018-09-02T13:42:31.736Z,18.60
2018-09-02T13:45:00.078Z,18.60
2018-09-02T13:47:28.412Z,18.40
2018-09-02T13:49:56.949Z,18.40
2018-09-02T13:52:25.365Z,18.30
2018-09-02T13:54:53.707Z,18.30
2018-09-02T13:57:22.016Z,18.20
2018-09-02T13:59:50.426Z,18.20
2018-09-02T14:02:18.673Z,18.20
2018-09-02T14:04:46.997Z,18.20
2018-09-02T14:07:15.309Z,18.20
2018-09-02T14:09:43.645Z,18.30
2018-09-02T14:12:12.041Z,18.30
2018-09-02T14:14:40.362Z,18.30
2018-09-02T14:17:08.700Z,18.30
2018-09-02T14:19:37.173Z,18.20
2018-09-02T14:22:05.784Z,18.20
2018-09-02T14:24:34.109Z,18.10
2018-09-02T14:27:02.424Z,18.10
2018-09-02T14:29:30.800Z,18.10
2018-09-02T14:31:59.173Z,18.20
2018-09-02T14:34:27.513Z,18.00
2018-09-02T14:36:55.848Z,18.00
2018-09-02T14:39:24.157Z,17.90
2018-09-02T14:41:52.485Z,17.80
2018-09-02T14:44:20.809Z,17.80
2018-09-02T14:46:49.140Z,17.70
2018-09-02T14:49:17.460Z,17.70
2018-09-02T14:51:45.879Z,17.80
2018-09-02T14:54:14.180Z,17.80
2018-09-02T14:56:42.537Z,17.80
2018-09-02T14:59:10.850Z,17.80
2018-09-02T15:01:39.189Z,17.70
2018-09-02T15:04:07.568Z,17.70
2018-09-02T15:06:35.953Z,17.60
2018-09-02T15:09:05.627Z,17.50
2018-09-02T15:11:34.027Z,17.50
2018-09-02T15:14:02.306Z,17.50
2018-09-02T15:16:30.661Z,17.50
2018-09-02T15:18:59.009Z,17.40
2018-09-02T15:21:27.407Z,17.50
2018-09-02T15:23:55.685Z,17.50
2018-09-02T15:26:24.032Z,17.50
2018-09-02T15:28:52.357Z,17.50
2018-09-02T15:31:20.698Z,17.40
2018-09-02T15:33:49.013Z,17.40
2018-09-02T15:36:17.392Z,17.40
2018-09-02T15:38:45.714Z,17.30
2018-09-02T15:41:14.049Z,17.30
2018-09-02T15:43:42.358Z,17.40
2018-09-02T15:46:10.693Z,17.60
2018-09-02T15:48:39.122Z,17.50
2018-09-02T15:51:07.461Z,17.60
2018-09-02T15:53:35.770Z,17.60
2018-09-02T15:56:04.105Z,17.60
2018-09-02T15:58:32.413Z,17.50
2018-09-02T16:01:00.868Z,17.50
2018-09-02T16:03:29.112Z,17.40
2018-09-02T16:05:57.457Z,17.40
2018-09-02T16:08:25.777Z,17.40
2018-09-02T16:10:54.116Z,17.40
2018-09-02T16:13:22.442Z,17.50
2018-09-02T16:15:50.765Z,17.50
2018-09-02T16:18:19.092Z,17.40
2018-09-02T16:20:47.445Z,17.40
2018-09-02T16:23:15.768Z,17.40
2018-09-02T16:25:44.091Z,17.50
2018-09-02T16:28:12.425Z,17.40
2018-09-02T16:30:40.761Z,17.40
2018-09-02T16:33:09.094Z,17.40
2018-09-02T16:35:37.464Z,17.30
2018-09-02T16:38:05.968Z,17.30
2018-09-02T16:40:34.301Z,17.40
2018-09-02T16:43:02.656Z,17.50
2018-09-02T16:45:30.980Z,17.50
2018-09-02T16:47:59.323Z,17.50
2018-09-02T16:50:27.632Z,17.50
2018-09-02T16:52:56.039Z,17.50
2018-09-02T16:55:24.313Z,17.60
2018-09-02T16:57:52.685Z,17.50
2018-09-02T17:00:21.004Z,17.60
2018-09-02T17:02:49.378Z,17.50
2018-09-02T17:05:19.669Z,17.40
2018-09-02T17:07:48.261Z,17.30
2018-09-02T17:10:16.564Z,17.20
2018-09-02T17:12:44.944Z,17.20
2018-09-02T17:15:13.249Z,17.30
2018-09-02T17:17:41.615Z,17.30
2018-09-02T17:20:11.693Z,17.20
2018-09-02T17:22:40.048Z,17.20
2018-09-02T17:25:08.648Z,17.20
2018-09-02T17:27:37.000Z,17.20
2018-09-02T17:30:05.767Z,17.30
2018-09-02T17:32:34.121Z,17.30
2018-09-02T17:35:02.488Z,17.20
2018-09-02T17:37:30.808Z,17.10
2018-09-02T17:39:59.143Z,16.90
2018-09-02T17:42:27.902Z,16.80
2018-09-02T17:44:56.229Z,16.90
2018-09-02T17:47:24.582Z,16.70
2018-09-02T17:49:52.913Z,16.70
2018-09-02T17:52:21.300Z,16.70
2018-09-02T17:54:49.863Z,16.60
2018-09-02T17:57:18.237Z,16.70
2018-09-02T17:59:46.540Z,16.90
2018-09-02T18:02:15.276Z,16.80
2018-09-02T18:04:43.597Z,16.70
2018-09-02T18:07:11.968Z,16.70
2018-09-02T18:09:40.272Z,16.60
2018-09-02T18:12:08.572Z,16.50
2018-09-02T18:14:36.912Z,16.50
2018-09-02T18:17:05.439Z,16.50
2018-09-02T18:19:33.792Z,16.50
2018-09-02T18:22:02.113Z,16.50
2018-09-02T18:24:30.449Z,16.50
2018-09-02T18:26:58.762Z,16.50
2018-09-02T18:29:27.101Z,16.50
2018-09-02T18:31:55.400Z,16.50
2018-09-02T18:34:23.757Z,16.40
2018-09-02T18:36:52.101Z,16.40
2018-09-02T18:39:20.525Z,16.40
2018-09-02T18:41:48.793Z,16.40
2018-09-02T18:44:17.137Z,16.40
2018-09-02T18:46:45.589Z,16.50
2018-09-02T18:49:13.941Z,16.50
2018-09-02T18:51:42.283Z,16.50
2018-09-02T18:54:10.675Z,16.50
2018-09-02T18:56:38.960Z,16.40
2018-09-02T18:59:07.677Z,16.30
2018-09-02T19:01:36.003Z,16.20
2018-09-02T19:04:04.358Z,16.20
2018-09-02T19:06:32.681Z,16.20
2018-09-02T19:09:01.026Z,16.10
2018-09-02T19:11:29.336Z,16.20
2018-09-02T19:13:57.665Z,16.10
2018-09-02T19:16:25.992Z,16.00
2018-09-02T19:18:54.349Z,16.10
2018-09-02T19:21:22.665Z,16.10
2018-09-02T19:23:51.009Z,16.10
2018-09-02T19:26:19.321Z,16.10
2018-09-02T19:28:47.657Z,16.10
2018-09-02T19:31:15.973Z,16.00
2018-09-02T19:33:44.457Z,16.00
2018-09-02T19:36:12.790Z,16.00
2018-09-02T19:38:41.214Z,15.90
2018-09-02T19:41:09.533Z,15.90
2018-09-02T19:43:37.939Z,16.00
2018-09-02T19:46:06.264Z,16.10
2018-09-02T19:48:34.605Z,16.10
2018-09-02T19:51:02.918Z,16.00
2018-09-02T19:53:31.333Z,15.90
2018-09-02T19:55:59.681Z,15.80
2018-09-02T19:58:28.181Z,15.80
2018-09-02T20:00:56.522Z,15.80
2018-09-02T20:03:24.845Z,15.80
2018-09-02T20:05:53.208Z,15.70
2018-09-02T20:08:21.533Z,15.90
2018-09-02T20:10:49.853Z,15.80
2018-09-02T20:13:18.364Z,15.90
2018-09-02T20:15:46.869Z,15.90
2018-09-02T20:18:15.212Z,15.90
2018-09-02T20:20:43.553Z,15.90
2018-09-02T20:23:11.919Z,15.90
2018-09-02T20:25:40.216Z,16.00
2018-09-02T20:28:08.524Z,16.00
2018-09-02T20:30:36.856Z,16.00
2018-09-02T20:33:05.177Z,16.10
2018-09-02T20:35:33.556Z,16.20
2018-09-02T20:38:01.852Z,16.10
2018-09-02T20:40:33.060Z,16.10
2018-09-02T20:43:03.742Z,16.10
2018-09-02T20:45:32.086Z,16.00
2018-09-02T20:48:06.134Z,15.90
2018-09-02T20:50:34.456Z,16.00
2018-09-02T20:53:02.757Z,15.90
2018-09-02T20:55:31.132Z,15.80
2018-09-02T20:57:59.484Z,15.70
2018-09-02T21:00:27.800Z,15.70
2018-09-02T21:02:56.114Z,15.80
2018-09-02T21:05:24.457Z,15.80
2018-09-02T21:07:52.780Z,15.80
2018-09-02T21:10:21.124Z,15.70
2018-09-02T21:12:49.436Z,15.70
2018-09-02T21:15:17.772Z,15.70
2018-09-02T21:17:46.211Z,15.70
2018-09-02T21:20:14.573Z,15.70
2018-09-02T21:22:42.884Z,15.70
2018-09-02T21:25:11.266Z,15.70
2018-09-02T21:27:39.569Z,15.70
2018-09-02T21:30:07.986Z,15.80
2018-09-02T21:32:36.301Z,15.70
2018-09-02T21:35:04.684Z,15.80
2018-09-02T21:37:32.976Z,15.80
2018-09-02T21:40:01.308Z,15.80
2018-09-02T21:42:29.664Z,15.80
2018-09-02T21:44:57.989Z,15.70
2018-09-02T21:47:26.308Z,15.70
2018-09-02T21:49:54.652Z,15.70
2018-09-02T21:52:23.084Z,15.70
2018-09-02T21:54:51.439Z,15.70
2018-09-02T21:57:19.761Z,15.70
2018-09-02T21:59:48.102Z,15.70
2018-09-02T22:02:16.433Z,15.60
2018-09-02T22:04:44.776Z,15.50
2018-09-02T22:07:13.188Z,15.50
2018-09-02T22:09:41.514Z,15.50
2018-09-02T22:12:09.857Z,15.50
2018-09-02T22:14:38.288Z,15.50
2018-09-02T22:17:06.668Z,15.50
2018-09-02T22:19:34.985Z,15.50
2018-09-02T22:22:03.405Z,15.60
2018-09-02T22:24:31.713Z,15.70
2018-09-02T22:27:00.042Z,15.70
2018-09-02T22:29:28.440Z,15.60
2018-09-02T22:31:56.766Z,15.50
2018-09-02T22:34:25.095Z,15.50
2018-09-02T22:36:53.529Z,15.50
2018-09-02T22:39:21.926Z,15.50
2018-09-02T22:41:50.344Z,15.50
2018-09-02T22:44:18.676Z,15.50
2018-09-02T22:46:47.020Z,15.50
2018-09-02T22:49:15.328Z,15.60
2018-09-02T22:51:43.670Z,15.50
2018-09-02T22:54:11.981Z,15.60
2018-09-02T22:56:40.320Z,15.60
2018-09-02T22:59:08.637Z,15.60
2018-09-02T23:01:36.977Z,15.60
2018-09-02T23:04:05.293Z,15.60
2018-09-02T23:06:33.611Z,15.60
2018-09-02T23:09:01.908Z,15.50
2018-09-02T23:11:30.255Z,15.50
2018-09-02T23:13:58.558Z,15.50
2018-09-02T23:16:26.925Z,15.50
2018-09-02T23:18:55.257Z,15.50
2018-09-02T23:21:23.581Z,15.50
2018-09-02T23:23:51.912Z,15.50
2018-09-02T23:26:20.257Z,15.60
2018-09-02T23:28:48.584Z,15.50
2018-09-02T23:31:16.936Z,15.40
2018-09-02T23:33:45.245Z,15.40
2018-09-02T23:36:13.564Z,15.40
2018-09-02T23:38:41.917Z,15.40
2018-09-02T23:41:10.213Z,15.40
2018-09-02T23:43:38.552Z,15.40
2018-09-02T23:46:06.908Z,15.40
2018-09-02T23:48:35.243Z,15.40
2018-09-02T23:51:03.599Z,15.30
2018-09-02T23:53:31.915Z,15.30
2018-09-02T23:56:00.216Z,15.30
2018-09-02T23:58:28.557Z,15.30
